Startpagina
METAR-TAF:

METAR-TAF

Vliegvelden :

Tena, Ecuador

breedte: 01-03-35S, lengte: 77-35-00W, hoogte: 376 m

Actueel weer

Dit bericht is 37 minuten geleden gemaakt, om 12:00 UTC
Wind 1 kt uit het zuidzuidwesten
Temperatuur 22°C
Vochtigheid 100%
Druk 1014 hPa
Zicht 10 km of meer
Weinig wolken op 2000 ft
Gebroken wolken op 10000 ft

METAR: SEJD 101200Z 20001KT 9999 FEW020 BKN100 22/22 Q1014 RMK A2997

Tijdstip: 07:37 (12:37 UTC)


TAF: ontbreekt

Waarnemingen en weersverwachtingen van meer dan 4000 vliegvelden (METAR en TAF).

De beschikbare stations zijn de gele en rode punten op de kaart.

Ga met uw muis naar het station om de naam te zien.

Klik dan om waarnemingen en weersverwachtingen te zien.

kaart wijzigen: klik op de groene knoppen met een zwart kruis om in te zoomen, op de groene knop met een streepje om uit te zoomen of op de groene pijlen voor aangrenzende kaarten.


METAR-TAF: